Time;durP1;ratioP1;P1;durP2;ratioP2;P2;SDS_P1;SDS_P2;PMS_P1;PMS_P2;Temp;Humidity;BMP_temperature;BMP_pressure;BME280_temperature;BME280_humidity;BME280_pressure;Samples;Min_cycle;Max_cycle;Signal;HPM_P1;HPM_P2
2024/03/29 01:43:10;;;;;;;1.40;1.40;;;5.90;51.50;;;;;;5091562;28;20226;-58
2024/03/29 01:45:36;;;;;;;1.30;1.30;;;5.90;51.10;;;;;;5099525;28;20212;-58
2024/03/29 01:48:03;;;;;;;1.70;1.60;;;6.00;51.20;;;;;;5099892;28;20213;-59
2024/03/29 01:50:30;;;;;;;1.80;1.70;;;5.90;51.10;;;;;;5093976;28;20215;-59
2024/03/29 01:52:57;;;;;;;1.60;1.50;;;5.90;60.00;;;;;;5099877;28;20229;-59
2024/03/29 01:55:23;;;;;;;1.60;1.50;;;5.80;56.20;;;;;;5100492;28;20208;-59
2024/03/29 01:57:50;;;;;;;1.67;1.67;;;5.80;55.90;;;;;;5095083;28;20219;-59
2024/03/29 02:00:17;;;;;;;1.37;1.37;;;5.90;58.10;;;;;;5092874;28;20206;-59
2024/03/29 02:02:43;;;;;;;2.17;2.07;;;5.90;60.60;;;;;;5099910;28;20230;-58
2024/03/29 02:05:10;;;;;;;1.40;1.40;;;5.90;71.00;;;;;;5098964;28;20254;-59
2024/03/29 02:07:37;;;;;;;1.70;1.60;;;5.90;57.40;;;;;;5102398;28;20247;-59
2024/03/29 02:10:03;;;;;;;1.60;1.50;;;6.00;56.40;;;;;;5091390;28;20609;-59
2024/03/29 02:12:30;;;;;;;1.80;1.70;;;6.00;56.90;;;;;;5099905;28;20232;-59
2024/03/29 02:14:58;;;;;;;1.57;1.50;;;5.90;57.80;;;;;;5105569;28;20210;-59
2024/03/29 02:17:24;;;;;;;1.60;1.50;;;5.90;59.20;;;;;;5091964;28;20555;-58
2024/03/29 02:19:51;;;;;;;1.60;1.50;;;5.80;57.20;;;;;;5093603;28;20201;-59
2024/03/29 02:22:19;;;;;;;1.67;1.57;;;5.90;49.90;;;;;;5099536;28;20309;-58
2024/03/29 02:24:46;;;;;;;1.57;1.47;;;5.80;50.40;;;;;;5106137;28;20213;-59
2024/03/29 02:27:13;;;;;;;1.60;1.50;;;5.90;50.40;;;;;;5109196;28;20213;-59
2024/03/29 02:29:39;;;;;;;2.70;2.50;;;5.90;50.70;;;;;;5105381;28;20206;-59
2024/03/29 02:32:06;;;;;;;3.03;2.50;;;5.90;50.50;;;;;;5104444;28;20244;-58
2024/03/29 02:34:32;;;;;;;2.07;1.83;;;5.80;50.20;;;;;;5087274;28;20231;-58
2024/03/29 02:36:59;;;;;;;3.67;2.43;;;5.90;50.40;;;;;;5095620;28;20204;-59
2024/03/29 02:39:25;;;;;;;2.73;2.53;;;6.00;50.20;;;;;;5106384;28;20212;-59
2024/03/29 02:41:52;;;;;;;2.00;1.90;;;5.90;50.10;;;;;;5099312;28;20224;-59
2024/03/29 02:44:19;;;;;;;2.30;2.07;;;6.00;50.30;;;;;;5107746;28;20306;-59
2024/03/29 02:46:44;;;;;;;1.70;1.60;;;5.90;50.20;;;;;;5105660;28;20210;-58
2024/03/29 02:49:11;;;;;;;1.70;1.60;;;5.90;50.50;;;;;;5112194;28;20650;-58
2024/03/29 02:51:36;;;;;;;1.57;1.47;;;6.00;50.40;;;;;;5089910;28;20229;-59
2024/03/29 02:54:03;;;;;;;1.83;1.73;;;5.90;50.40;;;;;;5093307;28;20211;-57
2024/03/29 02:56:28;;;;;;;1.90;1.80;;;5.90;50.10;;;;;;5097063;28;20235;-59
2024/03/29 02:58:55;;;;;;;1.80;1.70;;;5.90;50.30;;;;;;5093912;28;20284;-58
2024/03/29 03:01:21;;;;;;;1.70;1.60;;;5.80;50.50;;;;;;5090021;28;20585;-58
2024/03/29 03:03:47;;;;;;;1.70;1.60;;;5.70;50.90;;;;;;5097871;28;20236;-57
2024/03/29 03:06:13;;;;;;;1.80;1.70;;;5.70;50.90;;;;;;5098164;28;20212;-59
2024/03/29 03:11:23;;;;;;;1.80;1.70;;;5.70;50.90;;;;;;5091736;28;20196;-59
2024/03/29 03:13:50;;;;;;;1.80;1.70;;;5.80;51.00;;;;;;5096282;28;20220;-58
2024/03/29 03:16:16;;;;;;;2.00;1.90;;;5.80;50.80;;;;;;5094348;28;20300;-58
2024/03/29 03:18:42;;;;;;;2.00;1.80;;;5.90;50.60;;;;;;5092778;28;20707;-58
2024/03/29 03:21:08;;;;;;;1.83;1.73;;;5.90;50.40;;;;;;5092637;28;20672;-57
2024/03/29 03:23:34;;;;;;;1.70;1.70;;;5.80;50.90;;;;;;5094419;28;20231;-57
2024/03/29 03:26:00;;;;;;;1.83;1.60;;;5.60;50.80;;;;;;5097541;28;20208;-57
2024/03/29 03:28:27;;;;;;;1.83;1.73;;;5.70;50.90;;;;;;5079760;28;20204;-59
2024/03/29 03:30:52;;;;;;;1.70;1.60;;;5.70;50.90;;;;;;5092384;28;20319;-57
2024/03/29 03:33:19;;;;;;;1.90;1.80;;;5.70;50.90;;;;;;5101927;28;20232;-58
2024/03/29 03:35:44;;;;;;;1.90;1.80;;;5.70;50.90;;;;;;5107053;28;20683;-58
2024/03/29 03:38:11;;;;;;;1.80;1.70;;;5.80;50.70;;;;;;5098646;28;20205;-57
2024/03/29 03:40:36;;;;;;;1.80;1.70;;;5.80;51.00;;;;;;5093042;28;20201;-59
2024/03/29 03:43:03;;;;;;;1.80;1.70;;;5.70;50.90;;;;;;5087374;28;20209;-59
2024/03/29 03:45:29;;;;;;;1.70;1.70;;;5.60;53.30;;;;;;5092089;28;20577;-59
2024/03/29 03:47:56;;;;;;;1.80;1.70;;;5.60;61.20;;;;;;5094299;28;20296;-59
2024/03/29 03:50:21;;;;;;;1.70;1.60;;;5.70;59.20;;;;;;5109247;28;20220;-59
2024/03/29 03:52:48;;;;;;;1.60;1.60;;;5.70;60.10;;;;;;5092543;28;20712;-58
2024/03/29 03:55:13;;;;;;;1.80;1.70;;;5.70;59.20;;;;;;5108313;28;20201;-59
2024/03/29 03:57:40;;;;;;;1.80;1.70;;;5.60;60.30;;;;;;5101337;28;20235;-59
2024/03/29 04:00:06;;;;;;;1.60;1.60;;;5.60;59.50;;;;;;5111350;28;20216;-59
2024/03/29 04:02:32;;;;;;;1.60;1.50;;;5.70;58.20;;;;;;5098816;28;20223;-58
2024/03/29 04:04:58;;;;;;;1.80;1.70;;;5.70;59.00;;;;;;5107646;28;20208;-59
2024/03/29 04:07:25;;;;;;;1.40;1.40;;;5.70;58.20;;;;;;5102520;28;20201;-59
2024/03/29 04:09:50;;;;;;;1.63;1.60;;;5.70;58.60;;;;;;5102289;28;20234;-58
2024/03/29 04:12:17;;;;;;;2.00;1.90;;;5.50;61.50;;;;;;5104664;28;20249;-60
2024/03/29 04:14:43;;;;;;;1.73;1.70;;;;;;;;;;5101444;28;20301;-60
2024/03/29 04:17:09;;;;;;;1.73;1.63;;;5.50;50.70;;;;;;5100151;28;20200;-59
2024/03/29 04:19:35;;;;;;;1.70;1.60;;;5.60;51.30;;;;;;5092658;28;20201;-60
2024/03/29 04:22:01;;;;;;;1.80;1.70;;;5.60;51.10;;;;;;5094682;28;20223;-59
2024/03/29 04:24:27;;;;;;;1.87;1.77;;;5.60;51.10;;;;;;5093101;28;20204;-59
2024/03/29 04:26:54;;;;;;;1.80;1.70;;;5.60;51.30;;;;;;5099492;28;20252;-58
2024/03/29 04:29:19;;;;;;;2.47;1.90;;;5.60;51.10;;;;;;5089658;28;20205;-58
2024/03/29 04:31:46;;;;;;;1.50;1.50;;;5.70;50.90;;;;;;5098223;28;20234;-59
2024/03/29 04:34:11;;;;;;;1.97;1.87;;;5.60;51.30;;;;;;5116461;28;20204;-59
2024/03/29 04:36:38;;;;;;;1.83;1.73;;;5.60;51.30;;;;;;5104772;28;20436;-58
2024/03/29 04:39:04;;;;;;;1.80;1.70;;;5.60;51.40;;;;;;5083467;28;20204;-59
2024/03/29 04:41:34;;;;;;;2.07;1.97;;;5.60;51.40;;;;;;5101712;28;20598;-59
2024/03/29 04:44:00;;;;;;;2.07;1.97;;;5.60;51.40;;;;;;5098691;28;20262;-59
2024/03/29 04:46:27;;;;;;;2.00;1.90;;;5.60;51.60;;;;;;5090371;28;20220;-58
2024/03/29 04:48:54;;;;;;;2.00;1.90;;;5.50;51.80;;;;;;5104843;28;20200;-59
2024/03/29 04:51:20;;;;;;;2.00;1.90;;;5.50;52.30;;;;;;5098490;28;20209;-59
2024/03/29 04:53:47;;;;;;;2.00;1.90;;;5.50;52.30;;;;;;5098012;28;20215;-59
2024/03/29 04:56:13;;;;;;;2.17;2.07;;;5.40;52.30;;;;;;5091202;28;20215;-58
2024/03/29 04:58:40;;;;;;;2.10;2.00;;;5.50;52.20;;;;;;5096652;28;20208;-59
2024/03/29 05:01:07;;;;;;;2.17;2.07;;;5.50;51.80;;;;;;5098049;28;20200;-60
2024/03/29 05:03:33;;;;;;;1.87;1.77;;;5.60;52.40;;;;;;5096698;28;20211;-59
2024/03/29 05:06:00;;;;;;;1.90;1.80;;;5.50;52.00;;;;;;5088033;28;20728;-59
2024/03/29 05:08:26;;;;;;;2.07;1.97;;;5.40;52.30;;;;;;5105521;28;20525;-59
2024/03/29 05:10:53;;;;;;;3.17;2.00;;;5.50;52.10;;;;;;5097219;28;20663;-58
2024/03/29 05:13:20;;;;;;;1.97;1.87;;;5.50;52.20;;;;;;5092460;28;20233;-59
2024/03/29 05:15:47;;;;;;;1.90;1.80;;;5.50;52.30;;;;;;5089690;28;20257;-58
2024/03/29 05:18:14;;;;;;;2.00;1.90;;;5.50;52.20;;;;;;5100102;28;20678;-59
2024/03/29 05:20:41;;;;;;;2.20;2.10;;;5.40;52.70;;;;;;5098714;28;20675;-59
2024/03/29 05:23:07;;;;;;;2.20;2.10;;;5.30;53.00;;;;;;5093429;28;20221;-60
2024/03/29 05:25:34;;;;;;;2.10;2.00;;;5.40;52.90;;;;;;5114113;28;20212;-59
2024/03/29 05:28:01;;;;;;;2.30;2.20;;;5.30;53.10;;;;;;5090773;28;20233;-59
2024/03/29 05:30:28;;;;;;;2.00;1.90;;;5.40;52.90;;;;;;5084869;28;20204;-59
2024/03/29 05:32:55;;;;;;;2.20;2.10;;;5.30;53.00;;;;;;5098697;28;20248;-59
2024/03/29 05:35:22;;;;;;;2.13;2.03;;;5.50;52.60;;;;;;5099422;28;20214;-59
2024/03/29 05:37:51;;;;;;;2.27;2.17;;;5.50;52.60;;;;;;5100844;28;20263;-59
2024/03/29 05:40:17;;;;;;;2.50;2.30;;;5.50;52.30;;;;;;5100006;28;20639;-59
2024/03/29 05:42:44;;;;;;;2.80;2.10;;;5.50;52.30;;;;;;5094640;28;20220;-59
2024/03/29 05:45:10;;;;;;;2.80;2.60;;;5.60;52.30;;;;;;5101640;28;20205;-59
2024/03/29 05:47:37;;;;;;;2.33;2.23;;;5.80;52.00;;;;;;5101199;28;20207;-60
2024/03/29 05:50:03;;;;;;;2.10;2.00;;;5.80;51.40;;;;;;5102769;28;20204;-59
2024/03/29 05:52:30;;;;;;;2.23;2.03;;;5.90;51.60;;;;;;5099323;28;20323;-59
2024/03/29 05:54:57;;;;;;;3.40;3.13;;;5.90;51.20;;;;;;5106534;28;20625;-59
2024/03/29 05:57:29;;;;;;;2.37;2.20;;;5.90;51.30;;;;;;5095459;28;20208;-58
2024/03/29 05:59:56;;;;;;;2.23;2.13;;;6.00;51.60;;;;;;5096559;28;20247;-59
2024/03/29 06:02:22;;;;;;;2.40;2.30;;;5.90;51.10;;;;;;5098667;28;20238;-59
2024/03/29 06:04:49;;;;;;;2.70;2.50;;;6.00;51.20;;;;;;5092569;28;20200;-57
2024/03/29 06:07:16;;;;;;;2.20;2.10;;;6.00;51.20;;;;;;5094424;28;20205;-59
2024/03/29 06:09:42;;;;;;;2.50;2.30;;;6.10;50.90;;;;;;5096112;28;20642;-59
2024/03/29 06:12:11;;;;;;;2.63;2.53;;;6.20;50.60;;;;;;5096272;28;20220;-59
2024/03/29 06:17:25;;;;;;;2.30;2.20;;;6.20;50.30;;;;;;5106900;28;20638;-59
2024/03/29 06:19:51;;;;;;;2.23;2.13;;;6.40;49.90;;;;;;5085992;28;20214;-59
2024/03/29 06:22:18;;;;;;;2.20;2.10;;;6.80;49.50;;;;;;5093050;28;20241;-59
2024/03/29 06:24:44;;;;;;;2.27;2.17;;;7.00;48.80;;;;;;5096088;28;20292;-59
2024/03/29 06:27:11;;;;;;;2.43;2.33;;;7.20;48.40;;;;;;5088414;28;20219;-57
2024/03/29 06:29:37;;;;;;;2.23;2.13;;;7.50;47.90;;;;;;5095916;28;20614;-59
2024/03/29 06:32:04;;;;;;;2.30;2.10;;;7.60;47.60;;;;;;5104851;28;20235;-60
2024/03/29 06:34:31;;;;;;;2.27;2.17;;;7.80;47.00;;;;;;5097537;28;20208;-58
2024/03/29 06:36:57;;;;;;;2.10;2.00;;;7.80;46.80;;;;;;5096546;28;20207;-60
2024/03/29 06:39:25;;;;;;;2.20;2.00;;;7.80;46.80;;;;;;5100795;28;20207;-59
2024/03/29 06:41:52;;;;;;;2.53;2.20;;;8.00;46.50;;;;;;5097300;28;20612;-60
2024/03/29 06:44:18;;;;;;;1.80;1.70;;;8.10;45.90;;;;;;5098139;28;20211;-59
2024/03/29 06:46:45;;;;;;;2.07;1.97;;;8.20;45.60;;;;;;5089808;28;20206;-59
2024/03/29 06:49:11;;;;;;;1.70;1.60;;;8.60;45.70;;;;;;5095149;28;20207;-60
2024/03/29 06:51:38;;;;;;;1.90;1.80;;;8.60;44.80;;;;;;5109194;28;20242;-59
2024/03/29 06:54:05;;;;;;;1.80;1.70;;;8.80;44.50;;;;;;5097576;28;20314;-59
2024/03/29 06:56:31;;;;;;;2.00;1.90;;;8.80;44.50;;;;;;5087319;28;20212;-59
2024/03/29 06:58:58;;;;;;;1.80;1.70;;;9.00;43.20;;;;;;5091819;28;20221;-59
2024/03/29 07:01:24;;;;;;;2.10;2.00;;;9.20;43.40;;;;;;5084290;28;20207;-60
2024/03/29 07:03:51;;;;;;;1.80;1.70;;;9.40;42.80;;;;;;5081943;28;20209;-59
2024/03/29 07:06:17;;;;;;;1.97;1.87;;;9.60;66.80;;;;;;5098426;28;20219;-58
2024/03/29 07:08:44;;;;;;;1.67;1.57;;;9.80;45.90;;;;;;5089699;28;20208;-59
2024/03/29 07:11:11;;;;;;;2.10;1.77;;;10.10;40.40;;;;;;5092068;28;20202;-58
2024/03/29 07:13:37;;;;;;;1.80;1.70;;;10.30;40.20;;;;;;5094976;28;20229;-58
2024/03/29 07:16:04;;;;;;;1.80;1.70;;;10.30;39.70;;;;;;5107447;28;20209;-60
2024/03/29 07:18:31;;;;;;;1.67;1.57;;;10.50;39.50;;;;;;5105977;28;20580;-58
2024/03/29 07:20:57;;;;;;;1.67;1.57;;;10.50;39.30;;;;;;5097931;28;20205;-59
2024/03/29 07:23:24;;;;;;;1.60;1.50;;;10.60;38.50;;;;;;5098820;28;20232;-59
2024/03/29 07:25:50;;;;;;;1.80;1.70;;;10.60;38.50;;;;;;5088021;28;20208;-60
2024/03/29 07:28:17;;;;;;;1.40;1.30;;;10.90;37.60;;;;;;5085745;28;20217;-59
2024/03/29 07:30:44;;;;;;;1.67;1.57;;;10.90;38.10;;;;;;5093334;28;20200;-59
2024/03/29 07:33:10;;;;;;;1.67;1.57;;;10.80;38.30;;;;;;5080438;28;20249;-59
2024/03/29 07:35:37;;;;;;;1.70;1.60;;;10.90;38.40;;;;;;5043179;28;20209;-57
2024/03/29 07:38:04;;;;;;;1.40;1.30;;;11.10;38.90;;;;;;5050705;28;20587;-59
2024/03/29 07:40:31;;;;;;;1.87;1.70;;;11.50;37.70;;;;;;5047661;28;20204;-59
2024/03/29 07:42:57;;;;;;;1.30;1.20;;;11.80;39.40;;;;;;5055003;28;20229;-60
2024/03/29 07:45:24;;;;;;;1.83;1.60;;;;;;;;;;5046351;28;20687;-60
2024/03/29 07:47:52;;;;;;;1.80;1.70;;;12.20;35.20;;;;;;5057498;28;20204;-60
2024/03/29 07:50:19;;;;;;;1.30;1.30;;;;;;;;;;5064675;28;20215;-59
2024/03/29 07:52:46;;;;;;;1.43;1.37;;;12.50;35.70;;;;;;5056988;28;20574;-60
2024/03/29 07:55:12;;;;;;;1.53;1.43;;;12.70;35.60;;;;;;5057030;28;20207;-60
2024/03/29 07:57:39;;;;;;;1.50;1.40;;;13.00;34.40;;;;;;5056502;28;20217;-59
2024/03/29 08:00:05;;;;;;;1.40;1.30;;;12.80;33.70;;;;;;5053275;28;20213;-58
2024/03/29 08:02:32;;;;;;;1.40;1.30;;;12.90;33.90;;;;;;5045144;28;20222;-58
2024/03/29 08:04:59;;;;;;;1.40;1.30;;;12.90;34.30;;;;;;5054949;28;20654;-60
2024/03/29 08:07:25;;;;;;;2.10;1.40;;;13.10;33.70;;;;;;5039899;28;20225;-59
2024/03/29 08:09:52;;;;;;;2.33;1.20;;;13.20;33.60;;;;;;5047736;28;20198;-59
2024/03/29 08:12:18;;;;;;;1.60;1.50;;;13.40;33.70;;;;;;5039902;28;20246;-60
2024/03/29 08:14:46;;;;;;;1.70;1.20;;;13.50;33.60;;;;;;5048229;28;20210;-60
2024/03/29 08:17:12;;;;;;;1.50;1.30;;;13.60;33.70;;;;;;5045970;28;20202;-59
2024/03/29 08:19:39;;;;;;;1.30;1.30;;;13.50;34.00;;;;;;5045136;28;20203;-60
2024/03/29 08:22:06;;;;;;;2.23;1.30;;;13.50;33.60;;;;;;5050055;28;20228;-60
2024/03/29 08:24:32;;;;;;;1.50;1.40;;;13.40;34.10;;;;;;5060172;28;20473;-60
2024/03/29 08:27:02;;;;;;;1.50;1.50;;;13.50;34.10;;;;;;5050577;28;20209;-60
2024/03/29 08:29:28;;;;;;;1.33;1.30;;;13.70;33.80;;;;;;5047426;28;20218;-59
2024/03/29 08:31:55;;;;;;;1.47;1.37;;;13.80;33.90;;;;;;5062262;28;20231;-59
2024/03/29 08:34:21;;;;;;;2.13;1.37;;;13.70;34.60;;;;;;5052055;28;20226;-59
2024/03/29 08:36:48;;;;;;;1.50;1.40;;;13.80;34.40;;;;;;5041223;28;20303;-59
2024/03/29 08:39:13;;;;;;;1.30;1.20;;;13.90;35.00;;;;;;5043225;28;20204;-60
2024/03/29 08:41:40;;;;;;;1.67;1.30;;;14.10;34.80;;;;;;5037482;28;20250;-59
2024/03/29 08:44:07;;;;;;;1.10;1.10;;;14.10;35.40;;;;;;5044746;28;20231;-59
2024/03/29 08:46:33;;;;;;;1.30;1.30;;;14.20;38.40;;;;;;5046546;28;20492;-59
2024/03/29 08:49:00;;;;;;;1.20;1.10;;;14.20;36.60;;;;;;5052297;28;20199;-59
2024/03/29 08:51:27;;;;;;;1.47;1.33;;;14.40;36.00;;;;;;5049751;28;20323;-59
2024/03/29 08:53:53;;;;;;;1.20;1.20;;;14.30;36.70;;;;;;5040879;28;20688;-58
2024/03/29 08:56:20;;;;;;;1.10;1.10;;;14.30;36.30;;;;;;5037312;28;20547;-59
2024/03/29 08:58:46;;;;;;;1.43;1.33;;;14.40;35.80;;;;;;5045244;28;20296;-59
2024/03/29 09:03:44;;;;;;;2.50;1.40;;;14.30;34.80;;;;;;5026383;28;20222;-58
2024/03/29 09:06:11;;;;;;;1.20;1.20;;;14.50;33.70;;;;;;5031633;28;20651;-59
2024/03/29 09:08:37;;;;;;;1.80;1.37;;;14.40;36.00;;;;;;5029368;28;20214;-59
2024/03/29 09:11:04;;;;;;;1.50;1.40;;;14.70;34.10;;;;;;5019437;28;20233;-58
2024/03/29 09:13:32;;;;;;;1.43;1.33;;;14.80;34.60;;;;;;5027859;28;20215;-60
2024/03/29 09:15:58;;;;;;;1.40;1.30;;;14.80;34.40;;;;;;5025734;28;20223;-58
2024/03/29 09:18:26;;;;;;;1.30;1.30;;;14.80;34.70;;;;;;5028535;28;20280;-60
2024/03/29 09:20:53;;;;;;;1.20;1.20;;;14.80;35.20;;;;;;5022021;28;20205;-60
2024/03/29 09:23:23;;;;;;;1.40;1.30;;;14.90;35.80;;;;;;5024753;28;20222;-60
2024/03/29 09:25:49;;;;;;;1.23;1.20;;;15.00;36.40;;;;;;5031168;28;20219;-60
2024/03/29 09:28:16;;;;;;;1.97;1.10;;;15.20;38.20;;;;;;5031431;28;20211;-60
2024/03/29 09:30:42;;;;;;;1.70;1.20;;;15.20;38.70;;;;;;5029242;28;20657;-60
2024/03/29 09:33:10;;;;;;;1.40;1.30;;;15.20;39.40;;;;;;5026738;28;20237;-60
2024/03/29 09:35:37;;;;;;;1.20;1.17;;;15.50;38.90;;;;;;5028218;28;20208;-60
2024/03/29 09:38:04;;;;;;;1.40;1.30;;;15.60;37.50;;;;;;5027511;28;20499;-60
2024/03/29 09:40:31;;;;;;;1.40;1.20;;;15.90;35.70;;;;;;5022881;28;20207;-59
2024/03/29 09:43:02;;;;;;;1.10;1.10;;;16.20;36.00;;;;;;5032043;28;20642;-68
2024/03/29 09:45:28;;;;;;;1.40;1.30;;;16.10;34.60;;;;;;5027675;28;20230;-60
2024/03/29 09:47:55;;;;;;;1.50;1.40;;;16.00;34.50;;;;;;5026245;28;20664;-59
2024/03/29 09:50:21;;;;;;;1.23;1.10;;;16.60;38.60;;;;;;5028077;28;20241;-60
2024/03/29 09:52:48;;;;;;;1.00;1.00;;;17.00;37.20;;;;;;5027915;28;20218;-59
2024/03/29 09:55:16;;;;;;;1.60;1.00;;;16.90;36.60;;;;;;5024887;28;20213;-58
2024/03/29 09:57:42;;;;;;;1.10;1.00;;;16.70;35.80;;;;;;5033848;28;20276;-59
2024/03/29 10:00:09;;;;;;;1.37;1.20;;;16.50;35.00;;;;;;5033790;28;20239;-60
2024/03/29 10:02:36;;;;;;;1.23;1.03;;;16.50;34.60;;;;;;5033037;28;20242;-60
2024/03/29 10:05:03;;;;;;;1.10;1.10;;;16.20;34.70;;;;;;5033277;28;20207;-59
2024/03/29 10:07:31;;;;;;;1.13;1.13;;;16.30;33.10;;;;;;5026718;28;20208;-58
2024/03/29 10:09:58;;;;;;;1.43;1.20;;;16.70;29.90;;;;;;5030535;28;20208;-59
2024/03/29 10:12:25;;;;;;;1.30;1.20;;;16.60;35.10;;;;;;5028869;28;20254;-60
2024/03/29 10:14:54;;;;;;;3.40;1.30;;;16.60;31.60;;;;;;5028082;28;20223;-58
2024/03/29 10:17:21;;;;;;;1.50;1.10;;;16.50;32.60;;;;;;5033498;28;20216;-60
2024/03/29 10:19:48;;;;;;;1.20;1.10;;;16.40;32.90;;;;;;5031510;28;20291;-62
2024/03/29 10:22:15;;;;;;;1.10;1.10;;;16.80;31.20;;;;;;5023943;28;20614;-58
2024/03/29 10:24:41;;;;;;;0.90;0.90;;;16.80;31.10;;;;;;5028864;28;20201;-59
2024/03/29 10:27:08;;;;;;;1.17;0.90;;;16.80;31.40;;;;;;5032424;28;20217;-60
2024/03/29 10:29:34;;;;;;;1.20;1.10;;;16.90;31.30;;;;;;5026303;28;20204;-60
2024/03/29 10:32:01;;;;;;;1.40;1.30;;;16.90;31.80;;;;;;5029516;28;20222;-60
2024/03/29 10:34:33;;;;;;;1.23;1.13;;;16.80;32.90;;;;;;5026519;28;20283;-59
2024/03/29 10:37:00;;;;;;;1.40;1.10;;;17.00;31.90;;;;;;5029464;28;20320;-60
2024/03/29 10:39:27;;;;;;;1.00;1.00;;;17.00;32.40;;;;;;5028611;28;20220;-59
2024/03/29 10:41:53;;;;;;;1.00;1.00;;;16.80;32.10;;;;;;5022961;28;20225;-59
2024/03/29 10:44:20;;;;;;;0.80;0.80;;;16.60;32.70;;;;;;5029531;28;20205;-59
2024/03/29 10:46:47;;;;;;;0.90;0.90;;;16.90;31.80;;;;;;5027859;28;20205;-61
2024/03/29 10:49:16;;;;;;;1.00;1.00;;;16.80;32.70;;;;;;5023307;28;20209;-58
2024/03/29 10:51:45;;;;;;;1.43;1.30;;;16.90;32.70;;;;;;5013519;28;20280;-57
2024/03/29 10:54:13;;;;;;;1.00;1.00;;;17.30;31.40;;;;;;5010781;28;20223;-59
2024/03/29 10:56:41;;;;;;;1.30;1.17;;;17.60;30.70;;;;;;5015021;28;20952;-57
2024/03/29 10:59:07;;;;;;;0.90;0.90;;;18.00;30.80;;;;;;5018082;28;20604;-57
2024/03/29 11:01:34;;;;;;;1.00;1.00;;;17.80;43.40;;;;;;5022881;28;20226;-58
2024/03/29 11:04:02;;;;;;;1.70;0.93;;;17.80;30.50;;;;;;4986044;28;20206;-58
2024/03/29 11:06:29;;;;;;;1.13;1.03;;;17.90;27.10;;;;;;4983208;28;20210;-58
2024/03/29 11:08:56;;;;;;;1.90;1.17;;;17.90;26.10;;;;;;4993789;28;20212;-58
2024/03/29 11:11:24;;;;;;;0.90;0.90;;;17.90;26.20;;;;;;5016814;28;20248;-58
2024/03/29 11:13:52;;;;;;;1.17;1.10;;;17.70;26.50;;;;;;4997459;28;20718;-59
2024/03/29 11:16:20;;;;;;;1.10;1.10;;;17.80;26.80;;;;;;4998522;28;20211;-60
2024/03/29 11:18:47;;;;;;;0.90;0.90;;;17.80;27.00;;;;;;4986691;28;20221;-58
2024/03/29 11:21:18;;;;;;;1.27;1.13;;;17.90;26.50;;;;;;4990101;28;20213;-58
2024/03/29 11:23:44;;;;;;;1.03;0.90;;;17.70;26.50;;;;;;4995939;28;20658;-58
2024/03/29 11:26:11;;;;;;;1.27;1.27;;;17.90;26.40;;;;;;5023163;28;20213;-61
2024/03/29 11:28:38;;;;;;;1.10;1.00;;;17.90;26.80;;;;;;5022048;28;20754;-58
2024/03/29 11:31:05;;;;;;;1.40;1.30;;;18.00;25.70;;;;;;5010947;28;20234;-58
2024/03/29 11:33:31;;;;;;;1.00;1.00;;;17.90;26.10;;;;;;5022315;28;20220;-60
2024/03/29 11:35:57;;;;;;;1.30;1.20;;;17.80;26.40;;;;;;5012653;28;20352;-59
2024/03/29 11:38:24;;;;;;;1.00;1.00;;;17.70;26.40;;;;;;5020331;28;20199;-58
2024/03/29 11:40:51;;;;;;;1.03;0.90;;;17.80;26.30;;;;;;5027833;28;20676;-57
2024/03/29 11:43:17;;;;;;;0.80;0.80;;;17.90;26.00;;;;;;5025044;28;20234;-58
2024/03/29 11:45:44;;;;;;;0.83;0.83;;;18.00;26.10;;;;;;5030184;28;20294;-59
2024/03/29 11:48:10;;;;;;;1.13;1.07;;;18.10;25.90;;;;;;5028781;28;20213;-59
2024/03/29 11:50:37;;;;;;;1.10;1.00;;;18.20;25.20;;;;;;5023987;28;20547;-59
2024/03/29 11:53:04;;;;;;;0.90;0.90;;;18.20;25.60;;;;;;5030224;28;20234;-59
2024/03/29 11:55:31;;;;;;;1.20;1.10;;;18.20;25.60;;;;;;5022500;28;20729;-59
2024/03/29 11:57:57;;;;;;;1.17;1.07;;;18.20;25.70;;;;;;5025111;28;20263;-58
2024/03/29 12:00:29;;;;;;;1.17;1.10;;;18.30;25.90;;;;;;5024558;28;20229;-59
2024/03/29 12:02:57;;;;;;;1.20;1.10;;;18.40;25.70;;;;;;5034083;28;20230;-59
2024/03/29 12:05:24;;;;;;;0.90;0.90;;;18.40;25.90;;;;;;5031957;28;20201;-59
2024/03/29 12:07:51;;;;;;;1.20;1.10;;;18.30;25.90;;;;;;5032040;28;20293;-58
2024/03/29 12:10:18;;;;;;;0.93;0.93;;;18.50;26.00;;;;;;5035462;28;20233;-56
2024/03/29 12:12:44;;;;;;;2.50;1.20;;;18.60;25.40;;;;;;5033727;28;20596;-54
2024/03/29 12:15:11;;;;;;;1.00;1.00;;;19.00;25.30;;;;;;5025811;28;20227;-59
2024/03/29 12:17:38;;;;;;;0.90;0.90;;;19.40;25.60;;;;;;5031858;28;20223;-56
2024/03/29 12:20:11;;;;;;;1.17;0.80;;;19.50;25.70;;;;;;5032876;28;20206;-59
2024/03/29 12:22:37;;;;;;;1.17;1.07;;;19.90;25.20;;;;;;5029068;28;20227;-57
2024/03/29 12:25:04;;;;;;;1.30;0.88;;;20.60;23.80;;;;;;5031315;28;20198;-57
2024/03/29 12:27:31;;;;;;;1.48;0.90;;;21.90;22.00;;;;;;5033774;28;20206;-57
2024/03/29 12:29:57;;;;;;;1.08;0.80;;;22.50;21.60;;;;;;5034797;28;20213;-55
2024/03/29 12:32:26;;;;;;;1.02;1.02;;;21.70;22.50;;;;;;5032298;28;20603;-58
2024/03/29 12:34:53;;;;;;;0.70;0.70;;;23.80;21.60;;;;;;5030991;28;20232;-59
2024/03/29 12:37:19;;;;;;;0.88;0.80;;;25.20;34.80;;;;;;5027539;28;20238;-64
2024/03/29 12:39:46;;;;;;;0.60;0.60;;;27.00;26.90;;;;;;5026899;28;20577;-65
2024/03/29 12:42:13;;;;;;;0.32;0.32;;;29.60;16.60;;;;;;5032154;28;20222;-65
2024/03/29 12:44:39;;;;;;;0.88;0.68;;;31.00;15.10;;;;;;5030856;28;20210;-56
2024/03/29 12:47:06;;;;;;;0.68;0.50;;;31.70;14.00;;;;;;5030688;28;20203;-57
2024/03/29 12:49:32;;;;;;;1.63;0.60;;;30.90;14.00;;;;;;5033822;28;20209;-59
2024/03/29 12:51:59;;;;;;;0.70;0.70;;;31.70;14.10;;;;;;5027075;28;20226;-58
2024/03/29 12:54:26;;;;;;;0.82;0.50;;;31.80;13.50;;;;;;5028343;28;20317;-58
2024/03/29 12:56:53;;;;;;;0.65;0.65;;;32.30;13.00;;;;;;5027332;28;20631;-54
2024/03/29 12:59:21;;;;;;;0.47;0.47;;;32.30;13.00;;;;;;5031592;28;20216;-57
2024/03/29 13:01:47;;;;;;;0.55;0.55;;;32.00;12.90;;;;;;5027773;28;20245;-57
2024/03/29 13:04:14;;;;;;;0.80;0.80;;;31.90;41.40;;;;;;5026251;28;20210;-57
2024/03/29 13:06:40;;;;;;;0.57;0.50;;;29.80;24.50;;;;;;5032779;28;20202;-58
2024/03/29 13:09:07;;;;;;;0.30;0.30;;;25.90;44.20;;;;;;5029883;28;20583;-59
2024/03/29 13:11:34;;;;;;;0.50;0.50;;;24.00;20.50;;;;;;5033438;28;20591;-59
2024/03/29 13:14:01;;;;;;;2.38;0.70;;;23.80;19.60;;;;;;5025569;28;20281;-59
2024/03/29 13:16:28;;;;;;;1.02;1.02;;;26.50;17.30;;;;;;5026693;28;20681;-58
2024/03/29 13:18:54;;;;;;;1.05;0.65;;;28.90;15.20;;;;;;5028634;28;20214;-59
2024/03/29 13:21:21;;;;;;;0.55;0.55;;;27.90;14.90;;;;;;5031577;28;20622;-58
2024/03/29 13:23:48;;;;;;;1.25;0.50;;;27.80;15.60;;;;;;5033186;28;20293;-60
2024/03/29 13:26:14;;;;;;;0.35;0.35;;;27.00;15.70;;;;;;5033272;28;20210;-59
2024/03/29 13:28:41;;;;;;;0.50;0.50;;;25.50;17.40;;;;;;5033516;28;20246;-59
2024/03/29 13:31:08;;;;;;;0.52;0.50;;;23.70;19.10;;;;;;5032512;28;20622;-59
2024/03/29 13:33:34;;;;;;;0.40;0.40;;;22.80;20.10;;;;;;5033753;28;20218;-60
2024/03/29 13:36:01;;;;;;;0.52;0.50;;;22.40;19.80;;;;;;5033659;28;20232;-60
2024/03/29 13:38:28;;;;;;;0.60;0.60;;;21.90;20.90;;;;;;5021163;28;20199;-59
2024/03/29 13:40:56;;;;;;;0.60;0.50;;;21.70;22.10;;;;;;5029010;28;20211;-58
2024/03/29 13:43:23;;;;;;;0.50;0.50;;;21.50;27.00;;;;;;5019943;28;20245;-59
2024/03/29 13:45:50;;;;;;;0.40;0.40;;;21.30;29.00;;;;;;5027023;28;20206;-58
2024/03/29 13:48:17;;;;;;;0.70;0.70;;;21.20;27.60;;;;;;5032240;28;20252;-53
2024/03/29 13:50:44;;;;;;;0.70;0.70;;;21.30;28.40;;;;;;5029882;28;20206;-58
2024/03/29 13:53:10;;;;;;;1.23;0.63;;;21.00;29.10;;;;;;5031316;28;20234;-59
2024/03/29 13:55:37;;;;;;;0.60;0.60;;;21.00;28.50;;;;;;5031810;28;20229;-59
2024/03/29 13:58:04;;;;;;;1.17;1.00;;;21.10;28.00;;;;;;5029738;28;20206;-56
2024/03/29 14:00:30;;;;;;;1.60;1.50;;;21.00;27.80;;;;;;5025511;28;20685;-56
2024/03/29 14:02:58;;;;;;;0.70;0.70;;;21.00;28.00;;;;;;5029531;28;20242;-58
2024/03/29 14:05:25;;;;;;;0.93;0.93;;;21.00;28.10;;;;;;5030485;28;20205;-57
2024/03/29 14:07:52;;;;;;;0.80;0.80;;;21.10;27.60;;;;;;5024947;28;20620;-57
2024/03/29 14:10:19;;;;;;;0.70;0.70;;;20.90;27.50;;;;;;5028035;28;20209;-56
2024/03/29 14:12:47;;;;;;;0.80;0.63;;;20.90;27.60;;;;;;5031409;28;20248;-58
2024/03/29 14:15:13;;;;;;;0.73;0.73;;;20.80;27.50;;;;;;5025666;28;20256;-59
2024/03/29 14:17:40;;;;;;;0.80;0.80;;;20.80;27.30;;;;;;5027958;28;20683;-60
2024/03/29 14:20:06;;;;;;;0.60;0.60;;;20.80;27.40;;;;;;5031125;28;20601;-59
2024/03/29 14:22:34;;;;;;;0.60;0.60;;;20.70;27.30;;;;;;5031797;28;20233;-60
2024/03/29 14:25:02;;;;;;;0.77;0.70;;;20.60;27.00;;;;;;5031770;28;20260;-58
2024/03/29 14:27:30;;;;;;;0.87;0.87;;;20.50;27.40;;;;;;5031723;28;20266;-58
2024/03/29 14:29:56;;;;;;;0.77;0.73;;;20.60;26.70;;;;;;5031511;28;20208;-56
2024/03/29 14:32:23;;;;;;;0.70;0.70;;;20.60;26.60;;;;;;5031292;28;20621;-56
2024/03/29 14:34:50;;;;;;;0.70;0.70;;;20.60;26.40;;;;;;5029800;28;20315;-58
2024/03/29 14:37:16;;;;;;;1.47;0.70;;;20.50;22.00;;;;;;5024804;28;20209;-59
2024/03/29 14:39:43;;;;;;;0.70;0.70;;;20.50;21.90;;;;;;5025358;28;20574;-59